createdAt,value
2016-03-05T00:00:55.819Z,984.89
2016-03-05T00:01:55.837Z,984.89
2016-03-05T00:02:55.855Z,984.92
2016-03-05T00:03:55.889Z,984.93
2016-03-05T00:04:55.907Z,984.92
2016-03-05T00:05:55.910Z,984.87
2016-03-05T00:06:55.929Z,984.94
2016-03-05T00:07:55.946Z,984.98
2016-03-05T00:08:55.965Z,984.92
2016-03-05T00:09:55.967Z,984.98
2016-03-05T00:10:56.001Z,984.99
2016-03-05T00:11:56.004Z,985.01
2016-03-05T00:12:56.054Z,984.97
2016-03-05T00:13:56.042Z,984.95
2016-03-05T00:14:56.059Z,984.88
2016-03-05T00:15:56.078Z,984.77
2016-03-05T00:16:56.095Z,984.73
2016-03-05T00:17:56.115Z,984.74
2016-03-05T00:18:56.133Z,984.71
2016-03-05T00:19:56.150Z,984.75
2016-03-05T00:20:56.147Z,984.77
2016-03-05T00:21:56.154Z,984.73
2016-03-05T00:22:56.192Z,984.7
2016-03-05T00:23:56.167Z,984.66
2016-03-05T00:24:56.174Z,984.63
2016-03-05T00:25:56.185Z,984.64
2016-03-05T00:26:56.199Z,984.64
2016-03-05T00:27:56.217Z,984.61
2016-03-05T00:28:56.231Z,984.56
2016-03-05T00:29:56.241Z,984.59
2016-03-05T00:30:56.256Z,984.57
2016-03-05T00:31:56.273Z,984.57
2016-03-05T00:32:56.289Z,984.52
2016-03-05T00:33:56.307Z,984.53
2016-03-05T00:34:56.324Z,984.53
2016-03-05T00:35:56.325Z,984.49
2016-03-05T00:36:56.343Z,984.48
2016-03-05T00:37:56.360Z,984.49
2016-03-05T00:38:56.377Z,984.48
2016-03-05T00:39:56.395Z,984.46
2016-03-05T00:40:56.412Z,984.48
2016-03-05T00:41:56.432Z,984.46
2016-03-05T00:42:56.450Z,984.45
2016-03-05T00:43:56.468Z,984.42
2016-03-05T00:44:56.487Z,984.44
2016-03-05T00:45:56.489Z,984.4
2016-03-05T00:46:56.523Z,984.41
2016-03-05T00:47:56.525Z,984.39
2016-03-05T00:48:56.560Z,984.31
2016-03-05T00:49:56.562Z,984.34
2016-03-05T00:50:56.581Z,984.34
2016-03-05T00:51:56.598Z,984.32
2016-03-05T00:52:56.617Z,984.33
2016-03-05T00:53:56.635Z,984.33
2016-03-05T00:54:56.654Z,984.4
2016-03-05T00:55:56.673Z,984.36
2016-03-05T00:56:56.691Z,984.34
2016-03-05T00:57:56.694Z,984.36
2016-03-05T00:58:56.711Z,984.35
2016-03-05T00:59:56.730Z,984.4
2016-03-05T01:00:56.747Z,984.42
2016-03-05T01:01:56.766Z,984.42
2016-03-05T01:02:56.786Z,984.43
2016-03-05T01:03:56.803Z,984.42
2016-03-05T01:04:56.822Z,984.46
2016-03-05T01:05:56.840Z,984.45
2016-03-05T01:06:56.858Z,984.45
2016-03-05T01:07:56.860Z,984.46
2016-03-05T01:08:56.880Z,984.49
2016-03-05T01:09:56.897Z,984.49
2016-03-05T01:10:56.916Z,984.42
2016-03-05T01:11:56.934Z,984.53
2016-03-05T01:12:56.952Z,984.55
2016-03-05T01:13:56.970Z,984.55
2016-03-05T01:14:56.989Z,984.6
2016-03-05T01:15:57.007Z,984.62
2016-03-05T01:16:57.041Z,984.65
2016-03-05T01:17:57.044Z,984.67
2016-03-05T01:18:57.078Z,984.61
2016-03-05T01:19:57.065Z,984.59
2016-03-05T01:20:57.083Z,984.59
2016-03-05T01:21:57.101Z,984.6
2016-03-05T01:22:57.119Z,984.61
2016-03-05T01:23:57.139Z,984.63
2016-03-05T01:24:57.157Z,984.62
2016-03-05T01:25:57.175Z,984.6
2016-03-05T01:26:57.208Z,984.58
2016-03-05T01:27:57.211Z,984.58
2016-03-05T01:28:57.230Z,984.58
2016-03-05T01:29:57.248Z,984.58
2016-03-05T01:30:57.250Z,984.58
2016-03-05T01:31:57.269Z,984.55
2016-03-05T01:32:57.288Z,984.58
2016-03-05T01:33:57.306Z,984.59
2016-03-05T01:34:57.324Z,984.5
2016-03-05T01:35:57.341Z,984.51
2016-03-05T01:36:57.360Z,984.44
2016-03-05T01:37:57.380Z,984.42
2016-03-05T01:38:57.397Z,984.42
2016-03-05T01:39:57.416Z,984.41
2016-03-05T01:40:57.434Z,984.41
2016-03-05T01:41:57.452Z,984.4
2016-03-05T01:42:57.470Z,984.45
2016-03-05T01:43:57.488Z,984.49
2016-03-05T01:44:57.491Z,984.47
2016-03-05T01:45:57.510Z,984.47
2016-03-05T01:46:57.529Z,984.45
2016-03-05T01:47:57.546Z,984.43
2016-03-05T01:48:57.565Z,984.45
2016-03-05T01:49:57.583Z,984.43
2016-03-05T01:50:57.601Z,984.41
2016-03-05T01:51:57.619Z,984.36
2016-03-05T01:52:57.638Z,984.36
2016-03-05T01:53:57.657Z,984.35
2016-03-05T01:54:57.675Z,984.33
2016-03-05T01:55:57.677Z,984.31
2016-03-05T01:56:57.695Z,984.36
2016-03-05T01:57:57.714Z,984.32
2016-03-05T01:58:57.733Z,984.37
2016-03-05T01:59:57.750Z,984.4
2016-03-05T02:00:57.770Z,984.38
2016-03-05T02:01:57.787Z,984.43
2016-03-05T02:02:57.805Z,984.37
2016-03-05T02:03:57.824Z,984.38
2016-03-05T02:04:57.841Z,984.32
2016-03-05T02:05:57.861Z,984.29
2016-03-05T02:06:57.864Z,984.26
2016-03-05T02:07:57.882Z,984.23
2016-03-05T02:08:57.900Z,984.17
2016-03-05T02:09:57.918Z,984.2
2016-03-05T02:10:57.936Z,984.17
2016-03-05T02:11:57.954Z,984.18
2016-03-05T02:12:57.973Z,984.22
2016-03-05T02:13:57.992Z,984.18
2016-03-05T02:14:58.010Z,984.21
2016-03-05T02:15:58.029Z,984.21
2016-03-05T02:16:58.050Z,984.23
2016-03-05T02:17:58.053Z,984.26
2016-03-05T02:18:58.071Z,984.29
2016-03-05T02:19:58.089Z,984.27
2016-03-05T02:20:58.107Z,984.26
2016-03-05T02:21:58.126Z,984.32
2016-03-05T02:22:58.145Z,984.37
2016-03-05T02:23:58.163Z,984.3
2016-03-05T02:24:58.182Z,984.26
2016-03-05T02:25:58.199Z,984.22
2016-03-05T02:26:58.202Z,984.23
2016-03-05T02:27:58.220Z,984.23
2016-03-05T02:28:58.254Z,984.22
2016-03-05T02:29:58.257Z,984.15
2016-03-05T02:30:58.276Z,984.13
2016-03-05T02:31:58.293Z,984.09
2016-03-05T02:32:58.312Z,984.09
2016-03-05T02:33:58.331Z,984.04
2016-03-05T02:34:58.349Z,984.02
2016-03-05T02:35:58.367Z,984
2016-03-05T02:36:58.385Z,983.98
2016-03-05T02:37:58.388Z,983.94
2016-03-05T02:38:58.406Z,983.94
2016-03-05T02:39:58.425Z,983.93
2016-03-05T02:40:58.474Z,983.92
2016-03-05T02:41:58.461Z,983.87
2016-03-05T02:42:58.480Z,983.85
2016-03-05T02:43:58.498Z,983.8
2016-03-05T02:44:58.517Z,983.81
2016-03-05T02:45:58.534Z,983.78
2016-03-05T02:46:58.569Z,983.77
2016-03-05T02:47:58.571Z,983.78
2016-03-05T02:48:58.589Z,983.79
2016-03-05T02:49:58.607Z,983.82
2016-03-05T02:50:58.611Z,983.81
2016-03-05T02:51:58.630Z,983.79
2016-03-05T02:52:58.647Z,983.75
2016-03-05T02:53:58.666Z,983.75
2016-03-05T02:54:58.683Z,983.77
2016-03-05T02:55:58.702Z,983.74
2016-03-05T02:56:58.720Z,983.72
2016-03-05T02:57:58.738Z,983.77
2016-03-05T02:58:58.757Z,983.77
2016-03-05T02:59:58.760Z,983.76
2016-03-05T03:00:58.778Z,983.72
2016-03-05T03:01:58.812Z,983.7
2016-03-05T03:02:58.814Z,983.67
2016-03-05T03:03:58.832Z,983.65
2016-03-05T03:04:58.851Z,983.63
2016-03-05T03:05:58.869Z,983.58
2016-03-05T03:06:58.888Z,983.61
2016-03-05T03:07:58.906Z,983.57
2016-03-05T03:08:58.925Z,983.58
2016-03-05T03:09:58.927Z,983.57
2016-03-05T03:10:58.961Z,983.52
2016-03-05T03:11:58.964Z,983.49
2016-03-05T03:12:58.982Z,983.5
2016-03-05T03:13:59.001Z,983.51
2016-03-05T03:14:59.019Z,983.52
2016-03-05T03:15:59.037Z,983.45
2016-03-05T03:16:59.055Z,983.46
2016-03-05T03:17:59.074Z,983.39
2016-03-05T03:18:59.107Z,983.37
2016-03-05T03:19:59.111Z,983.36
2016-03-05T03:20:59.129Z,983.34
2016-03-05T03:21:59.131Z,983.38
2016-03-05T03:22:59.150Z,983.35
2016-03-05T03:23:59.168Z,983.36
2016-03-05T03:24:59.186Z,983.42
2016-03-05T03:25:59.204Z,983.43
2016-03-05T03:26:59.223Z,983.41
2016-03-05T03:27:59.288Z,983.4
2016-03-05T03:28:59.260Z,983.38
2016-03-05T03:29:59.278Z,983.38
2016-03-05T03:30:59.280Z,983.4
2016-03-05T03:31:59.299Z,983.43
2016-03-05T03:32:59.317Z,983.43
2016-03-05T03:33:59.335Z,983.36
2016-03-05T03:34:59.354Z,983.37
2016-03-05T03:35:59.373Z,983.34
2016-03-05T03:36:59.390Z,983.36
2016-03-05T03:37:59.409Z,983.36
2016-03-05T03:38:59.426Z,983.37
2016-03-05T03:39:59.445Z,983.34
2016-03-05T03:40:59.464Z,983.34
2016-03-05T03:41:59.482Z,983.39
2016-03-05T03:42:59.485Z,983.37
2016-03-05T03:43:59.504Z,983.36
2016-03-05T03:44:59.522Z,983.46
2016-03-05T03:45:59.539Z,983.49
2016-03-05T03:46:59.558Z,983.49
2016-03-05T03:47:59.576Z,983.46
2016-03-05T03:48:59.594Z,983.47
2016-03-05T03:49:59.614Z,983.49
2016-03-05T03:50:59.631Z,983.46
2016-03-05T03:51:59.650Z,983.44
2016-03-05T03:52:59.652Z,983.47
2016-03-05T03:53:59.671Z,983.43
2016-03-05T03:54:59.688Z,983.43
2016-03-05T03:55:59.707Z,983.48
2016-03-05T03:56:59.725Z,983.51
2016-03-05T03:57:59.744Z,983.49
2016-03-05T03:58:59.763Z,983.44
2016-03-05T03:59:59.780Z,983.49
2016-03-05T04:00:59.799Z,983.49
2016-03-05T04:01:59.817Z,983.46
2016-03-05T04:02:59.835Z,983.46
2016-03-05T04:03:59.837Z,983.46
2016-03-05T04:04:59.857Z,983.46
2016-03-05T04:05:59.875Z,983.46
2016-03-05T04:06:59.893Z,983.55
2016-03-05T04:07:59.912Z,983.61
2016-03-05T04:08:59.929Z,983.58
2016-03-05T04:09:59.948Z,983.58
2016-03-05T04:10:59.967Z,983.61
2016-03-05T04:11:59.985Z,983.57
2016-03-05T04:13:00.004Z,983.57
2016-03-05T04:14:00.006Z,983.6
2016-03-05T04:15:00.024Z,983.57
2016-03-05T04:16:00.042Z,983.59
2016-03-05T04:17:00.060Z,983.59
2016-03-05T04:18:00.078Z,983.58
2016-03-05T04:19:00.098Z,983.54
2016-03-05T04:20:00.116Z,983.55
2016-03-05T04:21:00.134Z,983.54
2016-03-05T04:22:00.153Z,983.55
2016-03-05T04:23:00.170Z,983.58
2016-03-05T04:24:00.172Z,983.52
2016-03-05T04:25:00.191Z,983.47
2016-03-05T04:26:00.211Z,983.47
2016-03-05T04:27:00.228Z,983.54
2016-03-05T04:28:00.247Z,983.46
2016-03-05T04:29:00.265Z,983.36
2016-03-05T04:30:00.283Z,983.31
2016-03-05T04:31:00.301Z,983.24
2016-03-05T04:32:00.319Z,983.24
2016-03-05T04:33:00.321Z,983.27
2016-03-05T04:34:00.357Z,983.31
2016-03-05T04:35:00.360Z,983.3
2016-03-05T04:36:00.377Z,983.35
2016-03-05T04:37:00.396Z,983.35
2016-03-05T04:38:00.414Z,983.34
2016-03-05T04:39:00.432Z,983.3
2016-03-05T04:40:00.450Z,983.31
2016-03-05T04:41:00.468Z,983.3
2016-03-05T04:42:00.472Z,983.29
2016-03-05T04:43:00.490Z,983.35
2016-03-05T04:44:00.524Z,983.35
2016-03-05T04:45:00.526Z,983.37
2016-03-05T04:46:00.544Z,983.42
2016-03-05T04:47:00.563Z,983.37
2016-03-05T04:48:00.582Z,983.4
2016-03-05T04:49:00.600Z,983.35
2016-03-05T04:50:00.618Z,983.35
2016-03-05T04:51:00.636Z,983.38
2016-03-05T04:52:00.655Z,983.39
2016-03-05T04:53:00.657Z,983.34
2016-03-05T04:54:00.675Z,983.3
2016-03-05T04:55:00.694Z,983.33
2016-03-05T04:56:00.713Z,983.29
2016-03-05T04:57:00.731Z,983.25
2016-03-05T04:58:00.750Z,983.28
2016-03-05T04:59:00.767Z,983.23
2016-03-05T05:00:00.769Z,983.22
2016-03-05T05:01:00.804Z,983.22
2016-03-05T05:02:00.822Z,983.21
2016-03-05T05:03:00.841Z,983.19
2016-03-05T05:04:00.844Z,983.18
2016-03-05T05:05:00.862Z,983.14
2016-03-05T05:06:00.916Z,983.16
2016-03-05T05:07:00.899Z,983.21
2016-03-05T05:08:00.917Z,983.26
2016-03-05T05:09:00.919Z,983.24
2016-03-05T05:10:00.955Z,983.29
2016-03-05T05:11:00.958Z,983.35
2016-03-05T05:12:00.991Z,983.4
2016-03-05T05:13:00.994Z,983.39
2016-03-05T05:14:01.011Z,983.41
2016-03-05T05:15:01.030Z,983.46
2016-03-05T05:16:01.063Z,983.47
2016-03-05T05:17:01.066Z,983.52
2016-03-05T05:18:01.085Z,983.53
2016-03-05T05:19:01.088Z,983.54
2016-03-05T05:20:01.122Z,983.5
2016-03-05T05:21:01.124Z,983.47
2016-03-05T05:22:01.158Z,983.49
2016-03-05T05:23:01.160Z,983.5
2016-03-05T05:24:01.179Z,983.49
2016-03-05T05:25:01.197Z,983.47
2016-03-05T05:26:01.216Z,983.49
2016-03-05T05:27:01.235Z,983.52
2016-03-05T05:28:01.253Z,983.5
2016-03-05T05:29:01.256Z,983.47
2016-03-05T05:30:01.289Z,983.45
2016-03-05T05:31:01.292Z,983.41
2016-03-05T05:32:01.310Z,983.37
2016-03-05T05:33:01.328Z,983.4
2016-03-05T05:34:01.347Z,983.38
2016-03-05T05:35:01.364Z,983.41
2016-03-05T05:36:01.384Z,983.41
2016-03-05T05:37:01.402Z,983.44
2016-03-05T05:38:01.419Z,983.46
2016-03-05T05:39:01.422Z,983.41
2016-03-05T05:40:01.441Z,983.33
2016-03-05T05:41:01.475Z,983.36
2016-03-05T05:42:01.525Z,983.28
2016-03-05T05:43:01.496Z,983.27
2016-03-05T05:44:01.530Z,983.29
2016-03-05T05:45:01.533Z,983.29
2016-03-05T05:46:01.535Z,983.31
2016-03-05T05:47:01.554Z,983.36
2016-03-05T05:48:01.571Z,983.4
2016-03-05T05:49:01.591Z,983.45
2016-03-05T05:50:01.608Z,983.46
2016-03-05T05:51:01.627Z,983.47
2016-03-05T05:52:01.645Z,983.52
2016-03-05T05:53:01.663Z,983.51
2016-03-05T05:54:01.681Z,983.55
2016-03-05T05:55:01.701Z,983.52
2016-03-05T05:56:01.704Z,983.56
2016-03-05T05:57:01.721Z,983.52
2016-03-05T05:58:01.740Z,983.51
2016-03-05T05:59:01.757Z,983.48
2016-03-05T06:00:01.776Z,983.54
2016-03-05T06:01:01.795Z,983.6
2016-03-05T06:02:01.812Z,983.62
2016-03-05T06:03:01.832Z,983.6
2016-03-05T06:04:01.850Z,983.58
2016-03-05T06:05:01.868Z,983.53
2016-03-05T06:06:01.870Z,983.49
2016-03-05T06:07:01.889Z,983.45
2016-03-05T06:08:01.907Z,983.43
2016-03-05T06:09:01.925Z,983.41
2016-03-05T06:10:01.944Z,983.36
2016-03-05T06:11:01.962Z,983.35
2016-03-05T06:12:01.981Z,983.25
2016-03-05T06:13:01.999Z,983.24
2016-03-05T06:14:02.017Z,983.27
2016-03-05T06:15:02.035Z,983.24
2016-03-05T06:16:02.038Z,983.27
2016-03-05T06:17:02.055Z,983.23
2016-03-05T06:18:02.074Z,983.25
2016-03-05T06:19:02.094Z,983.27
2016-03-05T06:20:02.111Z,983.27
2016-03-05T06:21:02.130Z,983.27
2016-03-05T06:22:02.148Z,983.27
2016-03-05T06:23:02.165Z,983.29
2016-03-05T06:24:02.168Z,983.26
2016-03-05T06:25:02.187Z,983.3
2016-03-05T06:26:02.205Z,983.34
2016-03-05T06:27:02.224Z,983.36
2016-03-05T06:28:02.243Z,983.34
2016-03-05T06:29:02.260Z,983.35
2016-03-05T06:30:02.278Z,983.34
2016-03-05T06:31:02.297Z,983.4
2016-03-05T06:32:02.301Z,983.38
2016-03-05T06:33:02.318Z,983.38
2016-03-05T06:34:02.336Z,983.38
2016-03-05T06:35:02.355Z,983.36
2016-03-05T06:36:02.373Z,983.34
2016-03-05T06:37:02.391Z,983.37
2016-03-05T06:38:02.409Z,983.36
2016-03-05T06:39:02.428Z,983.45
2016-03-05T06:40:02.447Z,983.48
2016-03-05T06:41:02.450Z,983.56
2016-03-05T06:42:02.483Z,983.6
2016-03-05T06:43:02.486Z,983.65
2016-03-05T06:44:02.503Z,983.65
2016-03-05T06:45:02.522Z,983.69
2016-03-05T06:46:02.540Z,983.68
2016-03-05T06:47:02.558Z,983.63
2016-03-05T06:48:02.578Z,983.58
2016-03-05T06:49:02.596Z,983.61
2016-03-05T06:50:02.614Z,983.61
2016-03-05T06:51:02.632Z,983.59
2016-03-05T06:52:02.635Z,983.64
2016-03-05T06:53:02.652Z,983.66
2016-03-05T06:54:02.671Z,983.67
2016-03-05T06:55:02.690Z,983.66
2016-03-05T06:56:02.708Z,983.73
2016-03-05T06:57:02.727Z,983.75
2016-03-05T06:58:02.745Z,983.69
2016-03-05T06:59:02.763Z,983.69
2016-03-05T07:00:02.781Z,983.61
2016-03-05T07:01:02.784Z,983.58
2016-03-05T07:02:02.818Z,983.55
2016-03-05T07:03:02.820Z,983.49
2016-03-05T07:04:02.840Z,983.46
2016-03-05T07:05:02.857Z,983.47
2016-03-05T07:06:02.876Z,983.55
2016-03-05T07:07:02.894Z,983.55
2016-03-05T07:08:02.912Z,983.53
2016-03-05T07:09:02.945Z,983.56
2016-03-05T07:10:02.933Z,983.52
2016-03-05T07:11:02.967Z,983.49
2016-03-05T07:12:02.970Z,983.48
2016-03-05T07:13:03.003Z,983.6
2016-03-05T07:14:03.006Z,983.68
2016-03-05T07:15:03.024Z,983.66
2016-03-05T07:16:03.043Z,983.64
2016-03-05T07:17:03.061Z,983.56
2016-03-05T07:18:03.080Z,983.56
2016-03-05T07:19:03.098Z,983.55
2016-03-05T07:20:03.117Z,983.54
2016-03-05T07:21:03.119Z,983.55
2016-03-05T07:22:03.137Z,983.55
2016-03-05T07:23:03.155Z,983.54
2016-03-05T07:24:03.174Z,983.61
2016-03-05T07:25:03.193Z,983.53
2016-03-05T07:26:03.210Z,983.5
2016-03-05T07:27:03.229Z,983.56
2016-03-05T07:28:03.247Z,983.57
2016-03-05T07:29:03.266Z,983.6
2016-03-05T07:30:03.284Z,983.66
2016-03-05T07:31:03.302Z,983.63
2016-03-05T07:32:03.304Z,983.64
2016-03-05T07:33:03.340Z,983.7
2016-03-05T07:34:03.342Z,983.7
2016-03-05T07:35:03.359Z,983.68
2016-03-05T07:36:03.409Z,983.69
2016-03-05T07:37:03.396Z,983.66
2016-03-05T07:38:03.414Z,983.75
2016-03-05T07:39:03.433Z,983.71
2016-03-05T07:40:03.451Z,983.71
2016-03-05T07:41:03.470Z,983.69
2016-03-05T07:42:03.473Z,983.75
2016-03-05T07:43:03.506Z,983.76
2016-03-05T07:44:03.509Z,983.73
2016-03-05T07:45:03.527Z,983.71
2016-03-05T07:46:03.561Z,983.63
2016-03-05T07:47:03.564Z,983.67
2016-03-05T07:48:03.582Z,983.68
2016-03-05T07:49:03.601Z,983.75
2016-03-05T07:50:03.619Z,983.78
2016-03-05T07:51:03.638Z,983.76
2016-03-05T07:52:03.655Z,983.71
2016-03-05T07:53:03.674Z,983.69
2016-03-05T07:54:03.692Z,983.62
2016-03-05T07:55:03.694Z,983.59
2016-03-05T07:56:03.729Z,983.64
2016-03-05T07:57:03.732Z,983.64
2016-03-05T07:58:03.750Z,983.63
2016-03-05T07:59:03.768Z,983.64
2016-03-05T08:00:03.787Z,983.64
2016-03-05T08:01:03.804Z,983.64
2016-03-05T08:02:03.824Z,983.6
2016-03-05T08:03:03.841Z,983.57
2016-03-05T08:04:03.876Z,983.55
2016-03-05T08:05:03.879Z,983.56
2016-03-05T08:06:03.897Z,983.55
2016-03-05T08:07:03.915Z,983.55
2016-03-05T08:08:03.918Z,983.55
2016-03-05T08:09:03.937Z,983.59
2016-03-05T08:10:03.955Z,983.61
2016-03-05T08:11:03.973Z,983.6
2016-03-05T08:12:03.991Z,983.59
2016-03-05T08:13:04.010Z,983.52
2016-03-05T08:14:04.028Z,983.53
2016-03-05T08:15:04.046Z,983.49
2016-03-05T08:16:04.065Z,983.49
2016-03-05T08:17:04.084Z,983.54
2016-03-05T08:18:04.102Z,983.57
2016-03-05T08:19:04.135Z,983.47
2016-03-05T08:20:04.137Z,983.47
2016-03-05T08:21:04.140Z,983.45
2016-03-05T08:22:04.175Z,983.53
2016-03-05T08:23:04.178Z,983.54
2016-03-05T08:24:04.196Z,983.57
2016-03-05T08:25:04.230Z,983.59
2016-03-05T08:26:04.233Z,983.57
2016-03-05T08:27:04.251Z,983.58
2016-03-05T08:28:04.269Z,983.56
2016-03-05T08:29:04.287Z,983.53
2016-03-05T08:30:04.305Z,983.47
2016-03-05T08:31:04.324Z,983.45
2016-03-05T08:32:04.342Z,983.41
2016-03-05T08:33:04.360Z,983.38
2016-03-05T08:34:04.380Z,983.35
2016-03-05T08:35:04.397Z,983.32
2016-03-05T08:36:04.400Z,983.28
2016-03-05T08:37:04.433Z,983.25
2016-03-05T08:38:04.436Z,983.23
2016-03-05T08:39:04.455Z,983.26
2016-03-05T08:40:04.473Z,983.22
2016-03-05T08:41:04.491Z,983.28
2016-03-05T08:42:04.510Z,983.26
2016-03-05T08:43:04.529Z,983.24
2016-03-05T08:44:04.546Z,983.2
2016-03-05T08:45:04.565Z,983.19
2016-03-05T08:46:04.583Z,983.19
2016-03-05T08:47:04.601Z,983.19
2016-03-05T08:48:04.635Z,983.2
2016-03-05T08:49:04.637Z,983.23
2016-03-05T08:50:04.657Z,983.28
2016-03-05T08:51:04.675Z,983.29
2016-03-05T08:52:04.693Z,983.34
2016-03-05T08:53:04.711Z,983.36
2016-03-05T08:54:04.729Z,983.36
2016-03-05T08:55:04.748Z,983.33
2016-03-05T08:56:04.766Z,983.31
2016-03-05T08:57:04.784Z,983.24
2016-03-05T08:58:04.803Z,983.21
2016-03-05T08:59:04.822Z,983.19
2016-03-05T09:00:04.839Z,983.15
2016-03-05T09:01:04.858Z,983.18
2016-03-05T09:02:04.876Z,983.17
2016-03-05T09:03:04.895Z,983.24
2016-03-05T09:04:04.897Z,983.23
2016-03-05T09:05:04.930Z,983.21
2016-03-05T09:06:04.933Z,983.19
2016-03-05T09:07:04.968Z,983.24
2016-03-05T09:08:04.986Z,983.22
2016-03-05T09:09:04.989Z,983.24
2016-03-05T09:10:05.007Z,983.27
2016-03-05T09:11:05.025Z,983.27
2016-03-05T09:12:05.059Z,983.26
2016-03-05T09:13:05.077Z,983.25
2016-03-05T09:14:05.080Z,983.28
2016-03-05T09:15:05.099Z,983.37
2016-03-05T09:16:05.117Z,983.35
2016-03-05T09:17:05.166Z,983.34
2016-03-05T09:18:05.153Z,983.36
2016-03-05T09:19:05.171Z,983.36
2016-03-05T09:20:05.190Z,983.42
2016-03-05T09:21:05.209Z,983.39
2016-03-05T09:22:05.242Z,983.44
2016-03-05T09:23:05.261Z,983.44
2016-03-05T09:24:05.264Z,983.47
2016-03-05T09:25:05.281Z,983.47
2016-03-05T09:26:05.300Z,983.44
2016-03-05T09:27:05.306Z,983.41
2016-03-05T09:28:05.310Z,983.42
2016-03-05T09:29:05.329Z,983.43
2016-03-05T09:30:05.334Z,983.42
2016-03-05T09:31:05.322Z,983.43
2016-03-05T09:32:05.335Z,983.47
2016-03-05T09:33:05.347Z,983.45
2016-03-05T09:34:05.361Z,983.49
2016-03-05T09:35:05.390Z,983.52
2016-03-05T09:36:05.388Z,983.53
2016-03-05T09:37:05.404Z,983.54
2016-03-05T09:38:05.420Z,983.57
2016-03-05T09:39:05.437Z,983.56
2016-03-05T09:40:05.453Z,983.54
2016-03-05T09:41:05.469Z,983.51
2016-03-05T09:42:05.502Z,983.5
2016-03-05T09:43:05.505Z,983.61
2016-03-05T09:44:05.523Z,983.6
2016-03-05T09:45:05.541Z,983.65
2016-03-05T09:46:05.559Z,983.69
2016-03-05T09:47:05.593Z,983.73
2016-03-05T09:48:05.595Z,983.71
2016-03-05T09:49:05.612Z,983.76
2016-03-05T09:50:05.645Z,983.75
2016-03-05T09:51:05.648Z,983.78
2016-03-05T09:52:05.667Z,983.78
2016-03-05T09:53:05.700Z,983.79
2016-03-05T09:54:05.703Z,983.78
2016-03-05T09:55:05.722Z,983.79
2016-03-05T09:56:05.756Z,983.8
2016-03-05T09:57:05.758Z,983.84
2016-03-05T09:58:05.792Z,983.85
2016-03-05T09:59:05.795Z,983.86
2016-03-05T10:00:05.814Z,983.88
2016-03-05T10:01:05.847Z,983.91
2016-03-05T10:02:05.881Z,983.85
2016-03-05T10:03:05.884Z,983.8
2016-03-05T10:04:05.902Z,983.82
2016-03-05T10:05:05.936Z,983.76
2016-03-05T10:06:05.939Z,983.81
2016-03-05T10:07:05.957Z,983.75
2016-03-05T10:08:05.976Z,983.74
2016-03-05T10:09:05.993Z,983.71
2016-03-05T10:10:06.012Z,983.71
2016-03-05T10:11:06.045Z,983.66
2016-03-05T10:12:06.049Z,983.7
2016-03-05T10:13:06.067Z,983.7
2016-03-05T10:14:06.085Z,983.74
2016-03-05T10:15:06.104Z,983.76
2016-03-05T10:16:06.123Z,983.8
2016-03-05T10:17:06.140Z,983.77
2016-03-05T10:18:06.158Z,983.81
2016-03-05T10:19:06.177Z,983.76
2016-03-05T10:20:06.195Z,983.78
2016-03-05T10:21:06.214Z,983.76
2016-03-05T10:22:06.248Z,983.72
2016-03-05T10:23:06.266Z,983.69
2016-03-05T10:24:06.284Z,983.64
2016-03-05T10:25:06.302Z,983.65
2016-03-05T10:26:06.321Z,983.69
2016-03-05T10:27:06.339Z,983.73
2016-03-05T10:28:06.358Z,983.73
2016-03-05T10:29:06.376Z,983.73
2016-03-05T10:30:06.394Z,983.69
2016-03-05T10:31:06.413Z,983.69
2016-03-05T10:32:06.430Z,983.67
2016-03-05T10:33:06.449Z,983.66
2016-03-05T10:34:06.467Z,983.69
2016-03-05T10:35:06.485Z,983.7
2016-03-05T10:36:06.519Z,983.66
2016-03-05T10:37:06.522Z,983.63
2016-03-05T10:38:06.541Z,983.6
2016-03-05T10:39:06.559Z,983.59
2016-03-05T10:40:06.593Z,983.56
2016-03-05T10:41:06.611Z,983.51
2016-03-05T10:42:06.629Z,983.52
2016-03-05T10:43:06.647Z,983.49
2016-03-05T10:44:06.666Z,983.46
2016-03-05T10:45:06.685Z,983.34
2016-03-05T10:46:06.703Z,983.33
2016-03-05T10:47:06.721Z,983.29
2016-03-05T10:48:06.739Z,983.27
2016-03-05T10:49:06.758Z,983.22
2016-03-05T10:50:06.776Z,983.21
2016-03-05T10:51:06.810Z,983.18
2016-03-05T10:52:06.828Z,983.16
2016-03-05T10:53:06.847Z,983.15
2016-03-05T10:54:06.865Z,983.11
2016-03-05T10:55:06.883Z,983.12
2016-03-05T10:56:06.902Z,983.13
2016-03-05T10:57:06.919Z,983.04
2016-03-05T10:58:06.954Z,982.99
2016-03-05T10:59:06.955Z,982.94
2016-03-05T11:00:06.991Z,982.95
2016-03-05T11:01:07.008Z,982.91
2016-03-05T11:02:07.027Z,982.92
2016-03-05T11:03:07.045Z,982.97
2016-03-05T11:04:07.063Z,983.03
2016-03-05T11:05:07.082Z,983.06
2016-03-05T11:06:07.100Z,983.13
2016-03-05T11:07:07.118Z,983.13
2016-03-05T11:08:07.138Z,983.19
2016-03-05T11:09:07.155Z,983.2
2016-03-05T11:10:07.173Z,983.3
2016-03-05T11:11:07.207Z,983.35
2016-03-05T11:12:07.225Z,983.41
2016-03-05T11:13:07.244Z,983.51
2016-03-05T11:14:07.262Z,983.54
2016-03-05T11:15:07.281Z,983.59
2016-03-05T11:16:07.299Z,983.63
2016-03-05T11:17:07.333Z,983.61
2016-03-05T11:18:07.336Z,983.63
2016-03-05T11:19:07.369Z,983.6
2016-03-05T11:20:07.387Z,983.63
2016-03-05T11:21:07.423Z,983.64
2016-03-05T11:22:07.425Z,983.64
2016-03-05T11:23:07.443Z,983.6
2016-03-05T11:24:07.461Z,983.67
2016-03-05T11:25:07.495Z,983.71
2016-03-05T11:26:07.513Z,983.79
2016-03-05T11:27:07.531Z,983.77
2016-03-05T11:28:07.549Z,983.79
2016-03-05T11:29:07.568Z,983.81
2016-03-05T11:30:07.587Z,983.75
2016-03-05T11:31:07.605Z,983.72
2016-03-05T11:32:07.624Z,983.66
2016-03-05T11:33:07.657Z,983.62
2016-03-05T11:34:07.675Z,983.59
2016-03-05T11:35:07.693Z,983.54
2016-03-05T11:36:07.712Z,983.57
2016-03-05T11:37:07.747Z,983.59
2016-03-05T11:38:07.749Z,983.61
2016-03-05T11:39:07.783Z,983.65
2016-03-05T11:40:07.801Z,983.62
2016-03-05T11:41:07.819Z,983.67
2016-03-05T11:42:07.837Z,983.63
2016-03-05T11:43:07.856Z,983.61
2016-03-05T11:44:07.874Z,983.61
2016-03-05T11:45:07.893Z,983.62
2016-03-05T11:46:07.927Z,983.59
2016-03-05T11:47:07.945Z,983.57
2016-03-05T11:48:07.979Z,983.6
2016-03-05T11:49:07.981Z,983.56
2016-03-05T11:50:08.016Z,983.52
2016-03-05T11:51:08.033Z,983.49
2016-03-05T11:52:08.053Z,983.47
2016-03-05T11:53:08.070Z,983.39
2016-03-05T11:54:08.089Z,983.35
2016-03-05T11:55:08.122Z,983.29
2016-03-05T11:56:08.141Z,983.24
2016-03-05T11:57:08.159Z,983.21
2016-03-05T11:58:08.177Z,983.17
2016-03-05T11:59:08.197Z,983.14
2016-03-05T12:00:08.214Z,983.17
2016-03-05T12:01:08.248Z,983.19
2016-03-05T12:02:08.266Z,983.21
2016-03-05T12:03:08.285Z,983.2
2016-03-05T12:04:08.303Z,983.19
2016-03-05T12:05:08.337Z,983.17
2016-03-05T12:06:08.356Z,983.17
2016-03-05T12:07:08.374Z,983.15
2016-03-05T12:08:08.392Z,983.13
2016-03-05T12:09:08.427Z,983.12
2016-03-05T12:10:08.444Z,983.08
2016-03-05T12:11:08.462Z,983.11
2016-03-05T12:12:08.481Z,983.11
2016-03-05T12:13:08.499Z,983.13
2016-03-05T12:14:08.532Z,983.11
2016-03-05T12:15:08.552Z,983.06
2016-03-05T12:16:08.570Z,983.07
2016-03-05T12:17:08.588Z,983.08
2016-03-05T12:18:08.606Z,983.07
2016-03-05T12:19:08.640Z,983.07
2016-03-05T12:20:08.659Z,983.1
2016-03-05T12:21:08.676Z,983.06
2016-03-05T12:22:08.712Z,983.06
2016-03-05T12:23:08.729Z,983.05
2016-03-05T12:24:08.748Z,983.03
2016-03-05T12:25:08.767Z,983.01
2016-03-05T12:26:08.800Z,983.02
2016-03-05T12:27:08.817Z,982.95
2016-03-05T12:28:08.836Z,982.95
2016-03-05T12:29:08.855Z,982.96
2016-03-05T12:30:08.873Z,982.95
2016-03-05T12:31:08.908Z,982.94